Time;durP1;ratioP1;P1;durP2;ratioP2;P2;SDS_P1;SDS_P2;PMS_P1;PMS_P2;Temp;Humidity;BMP_temperature;BMP_pressure;BME280_temperature;BME280_humidity;BME280_pressure;Samples;Min_cycle;Max_cycle;Signal;HPM_P1;HPM_P2
2023/04/08 00:01:08;;;;;;;11.13;5.18;;;7.00;98.30;;;;;;4964963;28;20138;-89
2023/04/08 00:03:33;;;;;;;12.07;5.40;;;6.90;98.60;;;;;;4956565;28;20046;-89
2023/04/08 00:06:01;;;;;;;9.35;4.32;;;6.90;98.80;;;;;;4976069;28;20487;-89
2023/04/08 00:08:27;;;;;;;9.07;4.65;;;6.90;99.00;;;;;;4961358;28;20456;-88
2023/04/08 00:10:52;;;;;;;10.98;5.40;;;6.80;99.40;;;;;;4975495;28;20034;-88
2023/04/08 00:13:18;;;;;;;10.38;5.35;;;6.80;99.70;;;;;;4974852;28;20030;-88
2023/04/08 00:15:44;;;;;;;10.45;5.25;;;6.70;99.90;;;;;;4961456;28;20041;-88
2023/04/08 00:18:10;;;;;;;12.70;5.38;;;6.70;99.90;;;;;;4964052;28;20041;-88
2023/04/08 00:20:36;;;;;;;11.85;4.88;;;6.60;99.90;;;;;;4962260;28;20048;-89
2023/04/08 00:23:01;;;;;;;9.80;5.07;;;6.60;99.90;;;;;;4953740;28;20048;-88
2023/04/08 00:25:27;;;;;;;9.90;4.50;;;6.60;99.90;;;;;;4960035;28;20133;-88
2023/04/08 00:27:53;;;;;;;11.25;5.13;;;6.60;99.90;;;;;;4954398;28;20053;-88
2023/04/08 00:30:18;;;;;;;10.38;5.20;;;6.60;99.90;;;;;;4960941;28;20031;-88
2023/04/08 00:32:44;;;;;;;12.75;5.40;;;6.60;99.90;;;;;;4954262;28;20039;-89
2023/04/08 00:35:11;;;;;;;12.32;5.82;;;6.60;99.90;;;;;;4958559;28;20034;-88
2023/04/08 00:37:37;;;;;;;11.23;5.47;;;6.50;99.90;;;;;;4965518;28;20061;-89
2023/04/08 00:40:03;;;;;;;10.40;4.80;;;6.60;99.90;;;;;;4970593;28;20429;-88
2023/04/08 00:42:29;;;;;;;11.00;5.15;;;6.50;99.90;;;;;;4970386;28;20034;-88
2023/04/08 00:44:55;;;;;;;12.68;5.38;;;6.50;99.90;;;;;;4950987;28;20057;-88
2023/04/08 00:47:21;;;;;;;11.35;5.35;;;6.50;99.90;;;;;;4965484;28;20416;-88
2023/04/08 00:49:47;;;;;;;10.32;5.30;;;6.50;99.90;;;;;;4962397;28;20042;-89
2023/04/08 00:52:12;;;;;;;12.18;5.63;;;6.40;99.90;;;;;;4975721;28;20046;-88
2023/04/08 00:54:38;;;;;;;9.70;4.65;;;6.40;99.90;;;;;;4978683;28;20038;-88
2023/04/08 00:57:05;;;;;;;10.27;5.90;;;6.30;99.90;;;;;;4985080;28;20515;-88
2023/04/08 00:59:32;;;;;;;11.07;4.93;;;6.20;99.90;;;;;;4973104;28;20041;-89
2023/04/08 01:02:20;;;;;;;12.70;5.35;;;6.20;99.90;;;;;;4981629;28;20571;-88
2023/04/08 01:04:59;;;;;;;11.20;5.45;;;6.10;99.90;;;;;;4964730;28;20419;-88
2023/04/08 01:07:29;;;;;;;12.63;5.35;;;6.10;99.90;;;;;;4960383;28;20046;-89
2023/04/08 01:09:57;;;;;;;12.15;5.82;;;6.00;99.90;;;;;;4991573;28;20077;-88
2023/04/08 01:12:29;;;;;;;10.55;5.43;;;6.00;99.90;;;;;;4981487;28;20411;-88
2023/04/08 01:15:06;;;;;;;12.35;6.38;;;6.00;99.90;;;;;;4975234;28;20097;-88
2023/04/08 01:17:33;;;;;;;12.85;5.50;;;6.00;99.90;;;;;;4973691;28;20113;-88
2023/04/08 01:20:00;;;;;;;11.23;5.82;;;6.00;99.90;;;;;;4960137;28;20045;-88
2023/04/08 01:22:35;;;;;;;12.38;6.10;;;6.00;99.90;;;;;;4982220;28;20046;-88
2023/04/08 01:25:16;;;;;;;12.18;6.25;;;6.00;99.90;;;;;;4969708;28;20081;-87
2023/04/08 01:27:42;;;;;;;11.88;6.20;;;6.00;99.90;;;;;;4990669;28;20093;-88
2023/04/08 01:30:09;;;;;;;11.40;5.85;;;5.90;99.90;;;;;;4980685;28;20049;-88
2023/04/08 01:32:36;;;;;;;10.55;5.35;;;5.90;99.90;;;;;;4989931;28;20081;-88
2023/04/08 01:35:02;;;;;;;11.68;6.43;;;5.90;99.90;;;;;;4966811;28;20522;-88
2023/04/08 01:37:29;;;;;;;11.63;6.07;;;5.90;99.90;;;;;;4976965;28;20031;-88
2023/04/08 01:39:56;;;;;;;11.75;6.00;;;5.90;99.90;;;;;;4977609;28;20043;-88
2023/04/08 01:42:24;;;;;;;11.70;6.15;;;5.90;99.90;;;;;;4953577;28;20500;-87
2023/04/08 01:44:53;;;;;;;12.30;6.20;;;5.80;99.90;;;;;;4977312;28;20045;-88
2023/04/08 01:47:19;;;;;;;12.43;6.72;;;5.80;99.90;;;;;;4965672;28;20373;-87
2023/04/08 01:49:45;;;;;;;14.20;6.15;;;5.80;99.90;;;;;;4967766;28;20049;-88
2023/04/08 01:52:12;;;;;;;14.18;6.68;;;5.80;99.90;;;;;;4972867;28;20089;-88
2023/04/08 01:54:37;;;;;;;13.15;6.00;;;5.70;99.90;;;;;;4961199;28;20041;-88
2023/04/08 01:57:07;;;;;;;14.05;6.95;;;5.70;99.90;;;;;;4961399;28;20056;-88
2023/04/08 01:59:35;;;;;;;12.07;6.32;;;5.60;99.90;;;;;;4968120;28;20042;-88
2023/04/08 02:02:04;;;;;;;11.45;5.57;;;5.50;99.90;;;;;;4959611;28;20677;-87
2023/04/08 02:04:30;;;;;;;11.75;6.20;;;5.50;99.90;;;;;;4981331;28;20504;-88
2023/04/08 02:06:57;;;;;;;12.65;6.82;;;5.40;99.90;;;;;;4972368;28;20118;-87
2023/04/08 02:09:24;;;;;;;12.18;5.95;;;5.30;99.90;;;;;;4987480;28;20089;-87
2023/04/08 02:11:49;;;;;;;12.80;7.35;;;5.30;99.90;;;;;;4980820;28;20042;-87
2023/04/08 02:14:15;;;;;;;10.90;6.22;;;5.20;99.90;;;;;;4970767;28;20045;-88
2023/04/08 02:16:58;;;;;;;11.70;6.53;;;5.20;99.90;;;;;;4972762;28;20039;-88
2023/04/08 02:19:35;;;;;;;;;;;5.20;99.90;;;;;;5000186;28;20052;-87
2023/04/08 02:22:17;;;;;;;13.73;6.78;;;5.20;99.90;;;;;;4951541;28;19917;-87
2023/04/08 02:24:44;;;;;;;11.68;5.97;;;5.20;99.90;;;;;;4976117;28;20054;-88
2023/04/08 02:27:10;;;;;;;13.40;5.68;;;5.10;99.90;;;;;;4966843;28;20096;-87
2023/04/08 02:29:39;;;;;;;11.93;5.88;;;5.10;99.90;;;;;;4957718;28;20055;-88
2023/04/08 02:32:05;;;;;;;9.85;5.65;;;5.10;99.90;;;;;;4984894;28;20117;-88
2023/04/08 02:34:31;;;;;;;12.50;6.47;;;5.10;99.90;;;;;;4966819;28;20026;-88
2023/04/08 02:36:57;;;;;;;14.23;7.50;;;5.00;99.90;;;;;;4973524;28;20045;-87
2023/04/08 02:39:33;;;;;;;13.30;6.82;;;5.00;99.90;;;;;;4967309;28;20474;-88
2023/04/08 02:41:59;;;;;;;13.52;6.05;;;5.00;99.90;;;;;;4987767;28;20053;-88
2023/04/08 02:44:24;;;;;;;14.63;7.07;;;4.90;99.90;;;;;;4978928;28;20046;-88
2023/04/08 02:46:50;;;;;;;12.77;7.57;;;4.90;99.90;;;;;;4987012;28;20038;-87
2023/04/08 02:49:16;;;;;;;13.38;7.07;;;4.90;99.90;;;;;;4970474;28;20116;-87
2023/04/08 02:51:41;;;;;;;11.75;6.25;;;4.90;99.90;;;;;;4955603;28;20042;-87
2023/04/08 02:54:07;;;;;;;12.50;6.75;;;4.80;99.90;;;;;;4968392;28;20046;-87
2023/04/08 02:56:32;;;;;;;14.20;7.57;;;4.80;99.90;;;;;;4964052;28;20073;-87
2023/04/08 02:58:58;;;;;;;13.80;6.80;;;4.80;99.90;;;;;;4983572;28;20050;-87
2023/04/08 03:01:24;;;;;;;11.40;6.40;;;4.80;99.90;;;;;;4969321;28;20041;-87
2023/04/08 03:03:49;;;;;;;13.55;6.95;;;4.80;99.90;;;;;;4998900;28;20049;-87
2023/04/08 03:06:15;;;;;;;16.10;7.30;;;4.80;99.90;;;;;;4971433;28;20108;-87
2023/04/08 03:08:41;;;;;;;12.43;6.82;;;4.80;99.90;;;;;;4964653;28;20038;-87
2023/04/08 03:11:07;;;;;;;14.43;7.53;;;4.80;99.90;;;;;;4974062;28;20057;-87
2023/04/08 03:13:33;;;;;;;17.52;8.38;;;4.80;99.90;;;;;;5002032;28;20038;-87
2023/04/08 03:15:58;;;;;;;16.17;8.35;;;4.70;99.90;;;;;;4962016;28;20039;-87
2023/04/08 03:18:24;;;;;;;17.27;8.95;;;4.70;99.90;;;;;;4983859;28;20049;-87
2023/04/08 03:20:50;;;;;;;15.60;8.00;;;4.60;99.90;;;;;;4971749;28;20403;-87
2023/04/08 03:23:16;;;;;;;14.40;7.30;;;4.60;99.90;;;;;;4954129;28;20035;-87
2023/04/08 03:25:41;;;;;;;14.90;8.70;;;4.60;99.90;;;;;;4953774;28;20118;-87
2023/04/08 03:28:07;;;;;;;14.35;8.00;;;4.60;99.90;;;;;;4970690;28;20030;-87
2023/04/08 03:30:32;;;;;;;13.07;8.07;;;4.60;99.90;;;;;;4975609;28;20044;-87
2023/04/08 03:32:58;;;;;;;15.90;8.90;;;4.60;99.90;;;;;;4970013;28;20038;-87
2023/04/08 03:35:24;;;;;;;16.15;7.63;;;4.50;99.90;;;;;;4953208;28;20053;-87
2023/04/08 03:37:50;;;;;;;15.82;8.95;;;4.50;99.90;;;;;;4981932;28;20030;-87
2023/04/08 03:40:15;;;;;;;13.95;8.07;;;4.50;99.90;;;;;;4953838;28;20404;-87
2023/04/08 03:42:41;;;;;;;16.05;8.68;;;4.40;99.90;;;;;;4958954;28;20097;-87
2023/04/08 03:45:07;;;;;;;16.98;9.65;;;4.40;99.90;;;;;;4976138;28;20072;-87
2023/04/08 03:47:33;;;;;;;15.52;8.43;;;4.40;99.90;;;;;;4967452;28;20034;-87
2023/04/08 03:49:58;;;;;;;17.00;9.30;;;4.40;99.90;;;;;;4973285;28;20038;-87
2023/04/08 03:52:24;;;;;;;17.65;8.65;;;4.40;99.90;;;;;;4968275;28;20069;-86
2023/04/08 03:54:50;;;;;;;16.60;8.95;;;4.30;99.90;;;;;;4957260;28;20065;-87
2023/04/08 03:57:15;;;;;;;15.02;9.20;;;4.30;99.90;;;;;;5015389;28;20410;-87
2023/04/08 03:59:41;;;;;;;15.48;8.32;;;4.30;99.90;;;;;;4979899;28;20130;-88
2023/04/08 04:02:07;;;;;;;15.82;8.80;;;4.20;99.90;;;;;;4951149;28;20100;-86
2023/04/08 04:04:34;;;;;;;14.80;8.20;;;4.20;99.90;;;;;;4972202;28;20503;-87
2023/04/08 04:07:00;;;;;;;18.52;8.88;;;4.10;99.90;;;;;;4965243;28;20527;-87
2023/04/08 04:09:26;;;;;;;13.63;7.88;;;4.10;99.90;;;;;;4981079;28;20050;-87
2023/04/08 04:11:51;;;;;;;15.48;8.57;;;4.10;99.90;;;;;;4959030;28;20081;-87
2023/04/08 04:14:17;;;;;;;15.20;8.27;;;4.10;99.90;;;;;;4955747;28;20027;-86
2023/04/08 04:16:42;;;;;;;15.75;9.18;;;4.10;99.90;;;;;;4983621;28;20041;-87
2023/04/08 04:19:08;;;;;;;18.52;9.88;;;4.10;99.90;;;;;;4966983;28;20546;-87
2023/04/08 04:21:34;;;;;;;17.60;9.98;;;4.20;99.90;;;;;;4978145;28;20488;-87
2023/04/08 04:23:59;;;;;;;19.10;10.23;;;4.20;99.90;;;;;;4986743;28;20049;-87
2023/04/08 04:26:25;;;;;;;17.35;9.82;;;4.30;99.90;;;;;;4967566;28;20518;-87
2023/04/08 04:28:51;;;;;;;16.92;9.68;;;4.30;99.90;;;;;;4987337;28;20092;-87
2023/04/08 04:31:21;;;;;;;18.02;9.75;;;4.30;99.90;;;;;;4950604;28;20030;-87
2023/04/08 04:33:48;;;;;;;19.08;9.95;;;4.40;99.90;;;;;;4968256;28;20057;-87
2023/04/08 04:36:14;;;;;;;19.92;10.48;;;4.30;99.90;;;;;;4988661;28;20074;-87
2023/04/08 04:38:41;;;;;;;17.77;10.30;;;4.30;99.90;;;;;;4975375;28;20038;-86
2023/04/08 04:41:07;;;;;;;18.42;9.82;;;4.30;99.90;;;;;;4968214;28;20124;-87
2023/04/08 04:43:33;;;;;;;18.10;9.30;;;4.40;99.90;;;;;;4956610;28;20504;-87
2023/04/08 04:45:59;;;;;;;17.15;9.70;;;4.30;99.90;;;;;;4984152;28;20057;-87
2023/04/08 04:48:25;;;;;;;16.40;9.77;;;4.30;99.90;;;;;;4984938;28;20117;-86
2023/04/08 04:50:59;;;;;;;18.27;9.63;;;4.30;99.90;;;;;;4947986;28;20121;-87
2023/04/08 04:53:25;;;;;;;16.20;9.13;;;4.30;99.90;;;;;;4990067;28;20515;-86
2023/04/08 04:55:50;;;;;;;21.27;10.93;;;4.30;99.90;;;;;;4965584;28;20038;-87
2023/04/08 04:58:18;;;;;;;16.50;10.25;;;4.40;99.90;;;;;;4977862;28;20049;-87
2023/04/08 05:00:44;;;;;;;18.45;10.13;;;4.40;99.90;;;;;;4963628;28;20047;-87
2023/04/08 05:03:09;;;;;;;19.45;10.80;;;4.40;99.90;;;;;;4974158;28;20042;-87
2023/04/08 05:05:35;;;;;;;22.55;10.18;;;4.40;99.90;;;;;;4998866;28;20399;-87
2023/04/08 05:08:01;;;;;;;18.50;10.65;;;4.40;99.90;;;;;;4988630;28;20033;-87
2023/04/08 05:10:26;;;;;;;19.65;10.32;;;4.50;99.90;;;;;;4985213;28;20035;-87
2023/04/08 05:12:52;;;;;;;20.45;10.43;;;4.50;99.90;;;;;;4973024;28;20562;-87
2023/04/08 05:15:17;;;;;;;20.35;11.20;;;4.50;99.90;;;;;;4978561;28;20038;-87
2023/04/08 05:17:43;;;;;;;18.92;10.13;;;4.60;99.90;;;;;;4979807;28;20496;-87
2023/04/08 05:20:09;;;;;;;20.75;11.80;;;4.60;99.90;;;;;;4973576;28;20128;-87
2023/04/08 05:22:35;;;;;;;19.45;11.15;;;4.60;99.90;;;;;;4959670;28;20034;-87
2023/04/08 05:25:00;;;;;;;19.95;11.20;;;4.70;99.90;;;;;;5004319;28;20142;-87
2023/04/08 05:27:27;;;;;;;20.90;10.90;;;4.70;99.90;;;;;;4969241;28;20038;-87
2023/04/08 05:29:53;;;;;;;19.42;11.57;;;4.70;99.90;;;;;;4977361;28;20046;-87
2023/04/08 05:32:19;;;;;;;20.13;11.02;;;4.80;99.90;;;;;;4988817;28;20411;-88
2023/04/08 05:34:45;;;;;;;21.08;12.00;;;4.90;99.90;;;;;;4954454;28;20041;-87
2023/04/08 05:37:12;;;;;;;19.45;10.57;;;4.90;99.90;;;;;;4972457;28;20716;-87
2023/04/08 05:39:37;;;;;;;19.60;11.57;;;4.90;99.90;;;;;;4966191;28;20054;-88
2023/04/08 05:42:03;;;;;;;20.85;10.65;;;5.00;99.90;;;;;;4983567;28;20416;-87
2023/04/08 05:44:29;;;;;;;22.95;11.23;;;5.00;99.90;;;;;;4949787;28;20050;-87
2023/04/08 05:46:56;;;;;;;19.48;11.55;;;5.00;99.90;;;;;;4961696;28;20038;-87
2023/04/08 05:49:22;;;;;;;20.27;11.18;;;5.00;99.90;;;;;;5000378;28;20046;-87
2023/04/08 05:51:47;;;;;;;22.02;11.63;;;5.00;99.90;;;;;;4972277;28;20545;-87
2023/04/08 05:54:13;;;;;;;18.48;11.60;;;5.10;99.90;;;;;;5000975;28;20073;-87
2023/04/08 05:56:39;;;;;;;18.65;10.35;;;5.10;99.90;;;;;;4981555;28;20514;-87
2023/04/08 05:59:04;;;;;;;20.25;11.27;;;5.10;99.90;;;;;;4987355;28;20050;-87
2023/04/08 06:01:30;;;;;;;21.58;11.50;;;5.20;99.90;;;;;;5013305;28;20033;-86
2023/04/08 06:03:55;;;;;;;19.98;11.65;;;5.20;99.90;;;;;;4983335;28;20044;-87
2023/04/08 06:06:22;;;;;;;19.80;11.48;;;5.20;99.90;;;;;;4982661;28;20050;-87
2023/04/08 06:08:48;;;;;;;24.20;13.13;;;5.30;99.90;;;;;;4974922;28;20074;-87
2023/04/08 06:11:13;;;;;;;21.67;11.15;;;5.30;99.90;;;;;;4994279;28;20081;-87
2023/04/08 06:13:39;;;;;;;20.63;11.80;;;5.40;99.90;;;;;;4972990;28;20045;-87
2023/04/08 06:16:13;;;;;;;18.48;11.20;;;5.40;99.90;;;;;;4987176;28;20092;-88
2023/04/08 06:18:38;;;;;;;21.85;12.27;;;5.40;99.90;;;;;;4998594;28;20492;-87
2023/04/08 06:21:04;;;;;;;21.25;11.88;;;5.50;99.90;;;;;;4995852;28;20143;-87
2023/04/08 06:23:30;;;;;;;21.88;11.57;;;5.50;99.90;;;;;;4961538;28;20038;-87
2023/04/08 06:25:56;;;;;;;21.05;11.27;;;5.60;99.90;;;;;;4954210;28;20129;-87
2023/04/08 06:28:21;;;;;;;21.23;11.32;;;5.60;99.90;;;;;;4992597;28;20061;-87
2023/04/08 06:30:47;;;;;;;21.90;12.13;;;5.60;99.90;;;;;;4976879;28;20042;-87
2023/04/08 06:33:13;;;;;;;24.05;11.98;;;5.70;99.90;;;;;;4957443;28;20389;-87
2023/04/08 06:35:38;;;;;;;21.63;12.10;;;5.70;99.90;;;;;;4983561;28;20033;-88
2023/04/08 06:38:04;;;;;;;23.17;12.40;;;5.80;99.90;;;;;;4956306;28;20045;-87
2023/04/08 06:40:30;;;;;;;21.60;11.82;;;5.80;99.90;;;;;;4991933;28;20034;-87
2023/04/08 06:42:56;;;;;;;22.98;11.52;;;5.90;99.90;;;;;;4960116;28;20619;-87
2023/04/08 06:45:21;;;;;;;20.00;12.20;;;5.90;99.90;;;;;;4978474;28;20045;-87
2023/04/08 06:47:47;;;;;;;21.55;11.45;;;6.00;99.90;;;;;;4990186;28;20456;-87
2023/04/08 06:50:13;;;;;;;21.52;11.85;;;6.10;99.90;;;;;;4956086;28;20042;-87
2023/04/08 06:52:39;;;;;;;22.63;11.73;;;6.20;99.90;;;;;;4980310;28;20113;-88
2023/04/08 06:55:05;;;;;;;21.38;11.90;;;6.30;99.90;;;;;;5001741;28;20514;-87
2023/04/08 06:57:31;;;;;;;23.42;12.85;;;6.40;99.90;;;;;;4976789;28;20044;-87
2023/04/08 06:59:56;;;;;;;22.58;12.50;;;6.40;99.90;;;;;;4976848;28;20042;-87
2023/04/08 07:02:22;;;;;;;22.77;12.52;;;6.50;99.90;;;;;;4991729;28;20045;-87
2023/04/08 07:04:48;;;;;;;21.30;11.93;;;6.60;99.90;;;;;;4952098;28;20058;-87
2023/04/08 07:07:14;;;;;;;24.08;12.75;;;6.70;99.90;;;;;;4958100;28;20042;-87
2023/04/08 07:09:42;;;;;;;23.48;12.73;;;6.70;99.90;;;;;;4953143;28;20042;-87
2023/04/08 07:12:07;;;;;;;21.67;12.13;;;6.80;99.90;;;;;;4959093;28;20073;-88
2023/04/08 07:14:33;;;;;;;24.50;12.82;;;6.90;99.90;;;;;;5005484;28;20077;-87
2023/04/08 07:16:59;;;;;;;24.55;12.60;;;7.00;99.90;;;;;;4956384;28;20069;-87
2023/04/08 07:19:25;;;;;;;23.08;13.10;;;7.00;99.90;;;;;;4976007;28;20600;-87
2023/04/08 07:21:51;;;;;;;23.60;13.45;;;7.10;99.90;;;;;;4957308;28;20100;-87
2023/04/08 07:24:17;;;;;;;27.08;13.57;;;7.20;99.90;;;;;;4959981;28;20169;-87
2023/04/08 07:26:43;;;;;;;23.20;12.43;;;7.20;99.90;;;;;;4952529;28;20073;-87
2023/04/08 07:29:09;;;;;;;26.80;13.50;;;7.30;99.90;;;;;;4972994;28;20039;-87
2023/04/08 07:31:35;;;;;;;26.98;14.07;;;7.40;99.90;;;;;;4964541;28;20085;-87
2023/04/08 07:34:01;;;;;;;24.40;12.73;;;7.50;99.90;;;;;;4950527;28;20090;-87
2023/04/08 07:36:27;;;;;;;26.77;14.45;;;7.60;99.90;;;;;;4947734;28;20034;-87
2023/04/08 07:38:52;;;;;;;25.05;14.40;;;7.70;99.90;;;;;;4952135;28;20065;-87
2023/04/08 07:41:18;;;;;;;24.15;13.73;;;7.70;99.90;;;;;;4971201;28;20057;-87
2023/04/08 07:43:44;;;;;;;24.33;11.95;;;7.80;99.90;;;;;;5016521;28;20050;-87
2023/04/08 07:46:10;;;;;;;25.38;14.50;;;7.90;99.90;;;;;;4951915;28;20243;-87
2023/04/08 07:48:36;;;;;;;25.35;13.07;;;8.00;99.90;;;;;;4960604;28;20504;-87
2023/04/08 07:51:06;;;;;;;21.27;12.43;;;8.10;99.90;;;;;;4953443;28;20504;-87
2023/04/08 07:53:33;;;;;;;23.90;13.07;;;8.10;99.90;;;;;;4967598;28;20035;-87
2023/04/08 07:55:59;;;;;;;23.92;13.68;;;8.20;99.90;;;;;;5007999;28;20510;-88
2023/04/08 07:58:25;;;;;;;22.85;12.93;;;8.30;99.90;;;;;;4949917;28;20041;-87
2023/04/08 08:00:51;;;;;;;23.15;13.23;;;8.40;99.90;;;;;;4958520;28;20038;-87
2023/04/08 08:03:16;;;;;;;21.17;13.10;;;8.50;99.90;;;;;;4966684;28;20125;-87
2023/04/08 08:05:42;;;;;;;23.25;12.93;;;8.50;99.90;;;;;;4969675;28;20054;-87
2023/04/08 08:08:10;;;;;;;21.20;12.68;;;8.60;99.90;;;;;;4944304;28;20038;-87
2023/04/08 08:10:37;;;;;;;19.77;11.60;;;8.70;99.90;;;;;;4956026;28;20050;-87
2023/04/08 08:13:04;;;;;;;18.45;11.68;;;8.70;99.90;;;;;;4955722;28;20037;-87
2023/04/08 08:15:30;;;;;;;18.65;10.95;;;8.70;99.90;;;;;;4989966;28;20042;-88
2023/04/08 08:17:56;;;;;;;19.05;10.77;;;8.70;99.90;;;;;;4977270;28;20033;-87
2023/04/08 08:20:21;;;;;;;20.45;11.13;;;8.80;99.90;;;;;;4971793;28;20061;-88
2023/04/08 08:22:47;;;;;;;18.98;11.32;;;8.90;99.90;;;;;;4951102;28;20880;-88
2023/04/08 08:25:13;;;;;;;22.60;11.88;;;9.10;99.90;;;;;;4990228;28;20088;-87
2023/04/08 08:27:40;;;;;;;20.48;12.43;;;9.30;99.90;;;;;;4957502;28;20047;-88
2023/04/08 08:30:07;;;;;;;22.30;11.73;;;9.40;99.90;;;;;;5002188;28;20057;-88
2023/04/08 08:32:33;;;;;;;18.83;11.52;;;9.50;99.90;;;;;;4999641;28;20038;-88
2023/04/08 08:34:58;;;;;;;18.52;11.10;;;9.60;99.90;;;;;;4961035;28;20038;-88
2023/04/08 08:37:25;;;;;;;19.77;11.05;;;9.60;99.90;;;;;;4999420;28;20103;-88
2023/04/08 08:39:51;;;;;;;22.17;12.23;;;9.70;99.90;;;;;;5005784;28;20053;-88
2023/04/08 08:42:22;;;;;;;22.08;12.73;;;9.80;99.90;;;;;;4973104;28;20042;-87
2023/04/08 08:44:48;;;;;;;19.25;10.55;;;9.80;99.90;;;;;;4975572;28;20053;-88
2023/04/08 08:47:15;;;;;;;18.77;10.68;;;9.90;99.90;;;;;;4982766;28;20427;-88
2023/04/08 08:49:40;;;;;;;19.10;11.27;;;9.90;99.90;;;;;;4971953;28;20047;-88
2023/04/08 08:52:06;;;;;;;21.15;12.13;;;9.90;99.90;;;;;;4956289;28;20046;-87
2023/04/08 08:54:32;;;;;;;18.70;10.60;;;9.90;99.90;;;;;;4950280;28;20034;-88
2023/04/08 08:56:58;;;;;;;18.27;10.68;;;10.00;99.90;;;;;;4965556;28;20041;-87
2023/04/08 08:59:23;;;;;;;24.25;11.88;;;10.10;99.90;;;;;;4956488;28;20057;-88
2023/04/08 09:01:49;;;;;;;18.52;10.27;;;10.20;99.90;;;;;;4958357;28;20044;-88
2023/04/08 09:04:21;;;;;;;16.77;9.85;;;10.30;99.90;;;;;;4961874;28;20038;-88
2023/04/08 09:07:10;;;;;;;16.35;9.13;;;10.50;99.90;;;;;;4990730;28;20030;-88
2023/04/08 09:09:50;;;;;;;16.80;9.98;;;10.50;99.90;;;;;;4986177;28;20525;-87
2023/04/08 09:12:15;;;;;;;14.48;8.80;;;10.60;99.90;;;;;;4976816;28;20124;-88
2023/04/08 09:14:42;;;;;;;16.38;10.20;;;10.60;99.90;;;;;;4976338;28;20125;-88
2023/04/08 09:17:07;;;;;;;16.92;10.13;;;10.60;99.90;;;;;;4995862;28;20132;-88
2023/04/08 09:19:33;;;;;;;18.15;10.00;;;10.60;99.90;;;;;;4957729;28;20129;-88
2023/04/08 09:22:11;;;;;;;15.43;9.45;;;10.60;99.90;;;;;;4962943;28;20039;-88
2023/04/08 09:24:37;;;;;;;16.65;9.82;;;10.50;99.90;;;;;;4957053;28;20108;-88
2023/04/08 09:27:04;;;;;;;18.95;10.05;;;10.50;99.90;;;;;;4957962;28;20692;-88
2023/04/08 09:29:30;;;;;;;15.18;9.43;;;10.60;99.90;;;;;;4952181;28;20046;-88
2023/04/08 09:32:00;;;;;;;15.13;9.60;;;10.60;99.90;;;;;;4998438;28;20038;-88
2023/04/08 09:34:27;;;;;;;16.63;10.50;;;10.70;99.90;;;;;;4989245;28;20103;-88
2023/04/08 09:36:53;;;;;;;16.85;10.30;;;10.90;99.90;;;;;;4990601;28;20523;-88
2023/04/08 09:39:20;;;;;;;15.27;9.63;;;11.10;99.90;;;;;;4963853;28;20041;-88
2023/04/08 09:41:48;;;;;;;17.83;10.13;;;11.20;99.90;;;;;;4994121;28;20034;-88
2023/04/08 09:44:18;;;;;;;15.95;10.15;;;11.30;99.90;;;;;;4954849;28;20121;-88
2023/04/08 09:47:00;;;;;;;16.65;10.45;;;11.30;99.90;;;;;;4969579;28;20679;-88
2023/04/08 09:49:32;;;;;;;16.30;10.03;;;11.40;99.90;;;;;;4993723;28;20038;-88
2023/04/08 09:52:10;;;;;;;17.52;10.10;;;11.40;99.90;;;;;;4981448;28;20043;-88
2023/04/08 09:55:03;;;;;;;16.58;10.77;;;11.50;99.90;;;;;;4987811;28;20030;-87
2023/04/08 09:57:57;;;;;;;15.63;9.55;;;11.60;99.90;;;;;;4947651;28;20046;-89
2023/04/08 10:00:37;;;;;;;15.57;9.95;;;11.60;99.90;;;;;;4978979;28;20121;-88
2023/04/08 10:03:12;;;;;;;16.98;11.23;;;11.70;99.90;;;;;;4983989;28;20042;-88
2023/04/08 10:05:40;;;;;;;15.90;11.13;;;11.80;99.90;;;;;;4998496;28;20038;-88
2023/04/08 10:08:06;;;;;;;17.98;11.70;;;12.00;99.90;;;;;;4976039;28;20053;-88
2023/04/08 10:10:39;;;;;;;16.80;10.55;;;12.00;99.90;;;;;;4969935;28;20492;-88
2023/04/08 10:13:06;;;;;;;15.50;10.63;;;12.10;99.90;;;;;;4993536;28;20034;-88
2023/04/08 10:15:33;;;;;;;17.23;11.57;;;12.10;99.90;;;;;;4985076;28;20033;-88
2023/04/08 10:18:01;;;;;;;16.58;11.15;;;12.10;99.90;;;;;;4996415;28;20038;-88
2023/04/08 10:20:41;;;;;;;18.63;12.07;;;12.10;99.90;;;;;;4980758;28;20041;-88
2023/04/08 10:23:14;;;;;;;18.00;12.10;;;12.10;99.90;;;;;;4960672;28;20134;-88
2023/04/08 10:25:41;;;;;;;17.92;12.82;;;12.10;99.90;;;;;;4952441;28;20129;-88
2023/04/08 10:28:10;;;;;;;18.30;12.40;;;12.10;99.90;;;;;;4969281;28;20050;-88
2023/04/08 10:30:41;;;;;;;16.60;11.48;;;12.10;99.90;;;;;;4966829;28;20050;-88
2023/04/08 10:33:36;;;;;;;19.75;13.18;;;12.10;99.90;;;;;;4969190;28;20041;-88
2023/04/08 10:36:10;;;;;;;18.80;12.90;;;12.10;99.90;;;;;;4977780;28;20097;-88
2023/04/08 10:38:37;;;;;;;17.38;13.32;;;12.00;99.90;;;;;;5003172;28;20042;-87
2023/04/08 10:41:03;;;;;;;19.02;13.00;;;12.00;99.90;;;;;;4999550;28;20074;-88
2023/04/08 10:43:36;;;;;;;20.35;13.60;;;12.00;99.90;;;;;;4971331;28;20621;-89
2023/04/08 10:46:02;;;;;;;18.20;12.55;;;11.90;99.90;;;;;;4998144;28;20039;-88
2023/04/08 10:48:28;;;;;;;18.77;12.63;;;11.80;99.90;;;;;;4999573;28;20042;-88
2023/04/08 10:51:04;;;;;;;17.17;11.90;;;11.80;99.90;;;;;;5002722;28;20046;-88
2023/04/08 10:53:39;;;;;;;17.02;11.63;;;11.90;99.90;;;;;;5000879;28;20499;-88
2023/04/08 10:56:05;;;;;;;17.73;13.18;;;12.00;99.90;;;;;;4997962;28;20065;-89
2023/04/08 10:58:31;;;;;;;18.13;13.32;;;12.00;99.90;;;;;;4983652;28;20037;-88
2023/04/08 11:01:03;;;;;;;19.83;13.63;;;12.10;99.90;;;;;;4972462;28;20046;-89
2023/04/08 11:03:32;;;;;;;21.98;12.73;;;12.10;99.90;;;;;;5011716;28;20045;-88
2023/04/08 11:05:59;;;;;;;20.67;18.60;;;12.10;99.90;;;;;;4972273;28;20042;-88
2023/04/08 11:08:32;;;;;;;18.00;12.35;;;12.30;99.90;;;;;;5007973;28;20129;-88
2023/04/08 11:11:01;;;;;;;19.48;13.20;;;12.30;99.90;;;;;;4989529;28;20062;-88
2023/04/08 11:13:27;;;;;;;18.75;13.25;;;12.30;99.90;;;;;;5011911;28;20038;-88
2023/04/08 11:15:55;;;;;;;17.85;11.85;;;12.30;99.90;;;;;;4989230;28;20049;-87
2023/04/08 11:18:22;;;;;;;17.70;12.45;;;12.20;99.90;;;;;;4960853;28;20089;-88
2023/04/08 11:20:50;;;;;;;17.17;11.85;;;12.20;99.90;;;;;;4995325;28;20403;-87
2023/04/08 11:23:16;;;;;;;17.65;12.32;;;12.10;99.90;;;;;;4973998;28;20046;-87
2023/04/08 11:25:43;;;;;;;16.42;10.43;;;12.10;99.90;;;;;;5000106;28;20096;-87
2023/04/08 11:28:10;;;;;;;17.83;11.75;;;12.10;99.90;;;;;;4982387;28;20046;-87
2023/04/08 11:30:39;;;;;;;17.40;11.77;;;12.20;99.90;;;;;;5012606;28;20037;-87
2023/04/08 11:33:05;;;;;;;16.10;11.15;;;12.20;99.90;;;;;;4997199;28;20126;-87
2023/04/08 11:35:31;;;;;;;16.67;11.40;;;12.20;99.90;;;;;;4997645;28;20508;-87
2023/04/08 11:37:57;;;;;;;18.02;11.35;;;12.20;99.90;;;;;;5002130;28;20034;-87
2023/04/08 11:40:23;;;;;;;15.65;10.45;;;12.30;99.90;;;;;;4967801;28;20545;-87
2023/04/08 11:42:50;;;;;;;16.20;9.43;;;12.20;99.90;;;;;;4994142;28;20046;-88
2023/04/08 11:45:18;;;;;;;14.60;10.07;;;12.20;99.90;;;;;;4973739;28;20129;-88
2023/04/08 11:47:44;;;;;;;15.82;10.68;;;12.20;99.90;;;;;;4979594;28;20121;-87
2023/04/08 11:50:10;;;;;;;14.82;9.27;;;12.20;99.90;;;;;;5003371;28;20073;-87
2023/04/08 11:52:49;;;;;;;15.40;9.93;;;12.30;99.90;;;;;;4962823;28;20038;-88
2023/04/08 11:55:27;;;;;;;17.67;10.73;;;12.30;99.90;;;;;;4958538;28;20121;-88
2023/04/08 11:57:54;;;;;;;17.85;15.90;;;12.30;99.90;;;;;;4962786;28;20289;-88
2023/04/08 12:00:20;;;;;;;18.48;11.23;;;12.30;99.90;;;;;;4953633;28;20049;-87
2023/04/08 12:02:47;;;;;;;19.63;11.63;;;12.30;99.90;;;;;;5005493;28;20061;-88
2023/04/08 12:05:14;;;;;;;18.60;11.48;;;12.30;99.90;;;;;;4996383;28;20029;-88
2023/04/08 12:07:41;;;;;;;18.83;16.85;;;12.30;99.90;;;;;;4965230;28;20140;-88
2023/04/08 12:10:07;;;;;;;18.13;11.80;;;12.30;99.90;;;;;;5001813;28;20039;-88
2023/04/08 12:12:33;;;;;;;16.70;10.10;;;12.30;99.90;;;;;;4977792;28;20045;-88
2023/04/08 12:14:58;;;;;;;17.63;10.27;;;12.20;99.90;;;;;;4996463;28;20037;-87
2023/04/08 12:17:24;;;;;;;17.15;11.73;;;12.20;99.90;;;;;;5002873;28;20049;-89
2023/04/08 12:19:50;;;;;;;17.65;11.35;;;12.10;99.90;;;;;;4979321;28;20125;-88
2023/04/08 12:22:15;;;;;;;20.00;12.48;;;12.10;99.90;;;;;;4971623;28;20116;-88
2023/04/08 12:24:41;;;;;;;20.25;18.10;;;12.10;99.90;;;;;;4981946;28;20435;-88
2023/04/08 12:27:06;;;;;;;18.80;11.63;;;12.20;99.90;;;;;;4979485;28;20087;-88
2023/04/08 12:29:32;;;;;;;19.73;12.35;;;12.10;99.90;;;;;;4980247;28;20492;-88
2023/04/08 12:31:58;;;;;;;18.45;11.68;;;12.10;99.90;;;;;;4952108;28;20428;-88
2023/04/08 12:34:24;;;;;;;19.23;11.93;;;12.10;99.90;;;;;;4953024;28;20614;-88
2023/04/08 12:36:50;;;;;;;17.98;11.32;;;12.10;99.90;;;;;;4956109;28;20037;-87
2023/04/08 12:39:15;;;;;;;18.85;12.40;;;12.10;99.90;;;;;;5004866;28;20393;-88